sensor_id;sensor_type;location;lat;lon;timestamp;temperature;humidity
16955;DHT22;8594;52.052;8.354;2022-07-19T00:00:09;24.50;87.80
16955;DHT22;8594;52.052;8.354;2022-07-19T00:02:38;24.40;88.30
16955;DHT22;8594;52.052;8.354;2022-07-19T00:05:06;24.10;89.20
16955;DHT22;8594;52.052;8.354;2022-07-19T00:07:34;23.80;89.70
16955;DHT22;8594;52.052;8.354;2022-07-19T00:10:05;23.80;89.70
16955;DHT22;8594;52.052;8.354;2022-07-19T00:12:35;23.70;90.10
16955;DHT22;8594;52.052;8.354;2022-07-19T00:15:03;23.70;90.10
16955;DHT22;8594;52.052;8.354;2022-07-19T00:17:32;23.90;90.10
16955;DHT22;8594;52.052;8.354;2022-07-19T00:20:00;24.00;90.30
16955;DHT22;8594;52.052;8.354;2022-07-19T00:22:27;24.00;90.30
16955;DHT22;8594;52.052;8.354;2022-07-19T00:24:54;23.90;90.00
16955;DHT22;8594;52.052;8.354;2022-07-19T00:27:22;23.80;90.20
16955;DHT22;8594;52.052;8.354;2022-07-19T00:29:49;23.90;90.20
16955;DHT22;8594;52.052;8.354;2022-07-19T00:32:16;24.00;90.20
16955;DHT22;8594;52.052;8.354;2022-07-19T00:34:43;24.00;90.30
16955;DHT22;8594;52.052;8.354;2022-07-19T00:37:09;24.00;90.60
16955;DHT22;8594;52.052;8.354;2022-07-19T00:39:36;24.10;90.40
16955;DHT22;8594;52.052;8.354;2022-07-19T00:42:03;24.20;90.30
16955;DHT22;8594;52.052;8.354;2022-07-19T00:44:32;24.20;90.10
16955;DHT22;8594;52.052;8.354;2022-07-19T00:46:59;24.20;89.90
16955;DHT22;8594;52.052;8.354;2022-07-19T00:49:27;24.20;90.10
16955;DHT22;8594;52.052;8.354;2022-07-19T00:51:54;24.20;90.20
16955;DHT22;8594;52.052;8.354;2022-07-19T00:54:22;24.20;90.60
16955;DHT22;8594;52.052;8.354;2022-07-19T00:56:51;24.20;90.40
16955;DHT22;8594;52.052;8.354;2022-07-19T00:59:19;24.20;90.40
16955;DHT22;8594;52.052;8.354;2022-07-19T01:01:49;24.30;90.20
16955;DHT22;8594;52.052;8.354;2022-07-19T01:04:17;24.10;90.60
16955;DHT22;8594;52.052;8.354;2022-07-19T01:06:45;24.00;91.00
16955;DHT22;8594;52.052;8.354;2022-07-19T01:09:12;23.90;91.00
16955;DHT22;8594;52.052;8.354;2022-07-19T01:11:39;24.00;90.80
16955;DHT22;8594;52.052;8.354;2022-07-19T01:14:06;24.00;90.90
16955;DHT22;8594;52.052;8.354;2022-07-19T01:16:33;23.90;91.00
16955;DHT22;8594;52.052;8.354;2022-07-19T01:19:01;23.60;91.50
16955;DHT22;8594;52.052;8.354;2022-07-19T01:21:33;23.60;91.70
16955;DHT22;8594;52.052;8.354;2022-07-19T01:24:00;23.60;91.60
16955;DHT22;8594;52.052;8.354;2022-07-19T01:26:27;23.40;91.50
16955;DHT22;8594;52.052;8.354;2022-07-19T01:28:55;23.20;91.90
16955;DHT22;8594;52.052;8.354;2022-07-19T01:31:21;23.10;92.00
16955;DHT22;8594;52.052;8.354;2022-07-19T01:33:48;23.20;91.70
16955;DHT22;8594;52.052;8.354;2022-07-19T01:36:15;23.40;91.50
16955;DHT22;8594;52.052;8.354;2022-07-19T01:38:43;23.50;91.40
16955;DHT22;8594;52.052;8.354;2022-07-19T01:41:10;23.50;91.20
16955;DHT22;8594;52.052;8.354;2022-07-19T01:43:37;23.50;91.60
16955;DHT22;8594;52.052;8.354;2022-07-19T01:46:04;23.50;91.60
16955;DHT22;8594;52.052;8.354;2022-07-19T01:48:31;23.50;91.40
16955;DHT22;8594;52.052;8.354;2022-07-19T01:50:58;23.50;91.40
16955;DHT22;8594;52.052;8.354;2022-07-19T01:53:25;23.60;91.20
16955;DHT22;8594;52.052;8.354;2022-07-19T01:55:53;23.60;91.30
16955;DHT22;8594;52.052;8.354;2022-07-19T01:58:21;23.60;91.20
16955;DHT22;8594;52.052;8.354;2022-07-19T02:00:48;23.50;91.60
16955;DHT22;8594;52.052;8.354;2022-07-19T02:03:14;23.40;92.00
16955;DHT22;8594;52.052;8.354;2022-07-19T02:05:42;23.30;92.30
16955;DHT22;8594;52.052;8.354;2022-07-19T02:08:09;23.40;92.00
16955;DHT22;8594;52.052;8.354;2022-07-19T02:10:36;23.40;91.90
16955;DHT22;8594;52.052;8.354;2022-07-19T02:13:04;23.20;92.20
16955;DHT22;8594;52.052;8.354;2022-07-19T02:15:31;22.90;92.30
16955;DHT22;8594;52.052;8.354;2022-07-19T02:17:57;22.80;92.60
16955;DHT22;8594;52.052;8.354;2022-07-19T02:20:24;22.40;92.60
16955;DHT22;8594;52.052;8.354;2022-07-19T02:22:51;22.20;92.90
16955;DHT22;8594;52.052;8.354;2022-07-19T02:25:18;22.10;93.00
16955;DHT22;8594;52.052;8.354;2022-07-19T02:27:45;22.40;92.30
16955;DHT22;8594;52.052;8.354;2022-07-19T02:30:14;22.60;92.30
16955;DHT22;8594;52.052;8.354;2022-07-19T02:32:43;22.70;92.10
16955;DHT22;8594;52.052;8.354;2022-07-19T02:35:11;22.70;92.30
16955;DHT22;8594;52.052;8.354;2022-07-19T02:37:39;22.70;92.30
16955;DHT22;8594;52.052;8.354;2022-07-19T02:40:08;22.60;92.80
16955;DHT22;8594;52.052;8.354;2022-07-19T02:42:35;22.60;93.00
16955;DHT22;8594;52.052;8.354;2022-07-19T02:45:03;22.60;93.00
16955;DHT22;8594;52.052;8.354;2022-07-19T02:47:31;22.30;93.80
16955;DHT22;8594;52.052;8.354;2022-07-19T02:49:58;22.30;93.80
16955;DHT22;8594;52.052;8.354;2022-07-19T02:52:25;22.40;93.70
16955;DHT22;8594;52.052;8.354;2022-07-19T02:54:55;22.50;93.20
16955;DHT22;8594;52.052;8.354;2022-07-19T02:57:21;22.60;93.10
16955;DHT22;8594;52.052;8.354;2022-07-19T02:59:48;22.50;93.30
16955;DHT22;8594;52.052;8.354;2022-07-19T03:02:15;22.50;93.60
16955;DHT22;8594;52.052;8.354;2022-07-19T03:04:43;22.40;93.70
16955;DHT22;8594;52.052;8.354;2022-07-19T03:07:10;22.50;93.10
16955;DHT22;8594;52.052;8.354;2022-07-19T03:09:37;22.70;92.70
16955;DHT22;8594;52.052;8.354;2022-07-19T03:12:04;22.80;92.60
16955;DHT22;8594;52.052;8.354;2022-07-19T03:14:31;22.80;92.40
16955;DHT22;8594;52.052;8.354;2022-07-19T03:16:58;22.70;93.10
16955;DHT22;8594;52.052;8.354;2022-07-19T03:19:25;22.60;92.80
16955;DHT22;8594;52.052;8.354;2022-07-19T03:21:54;22.50;92.70
16955;DHT22;8594;52.052;8.354;2022-07-19T03:24:21;22.60;92.70
16955;DHT22;8594;52.052;8.354;2022-07-19T03:26:48;22.50;92.60
16955;DHT22;8594;52.052;8.354;2022-07-19T03:29:15;22.40;93.00
16955;DHT22;8594;52.052;8.354;2022-07-19T03:31:42;22.30;92.70
16955;DHT22;8594;52.052;8.354;2022-07-19T03:34:09;22.40;92.60
16955;DHT22;8594;52.052;8.354;2022-07-19T03:36:36;22.40;92.40
16955;DHT22;8594;52.052;8.354;2022-07-19T03:39:05;22.70;91.80
16955;DHT22;8594;52.052;8.354;2022-07-19T03:41:32;23.00;91.50
16955;DHT22;8594;52.052;8.354;2022-07-19T03:43:59;22.90;91.90
16955;DHT22;8594;52.052;8.354;2022-07-19T03:46:26;22.70;92.50
16955;DHT22;8594;52.052;8.354;2022-07-19T03:48:53;22.70;92.60
16955;DHT22;8594;52.052;8.354;2022-07-19T03:51:20;22.80;92.10
16955;DHT22;8594;52.052;8.354;2022-07-19T03:53:47;22.70;92.90
16955;DHT22;8594;52.052;8.354;2022-07-19T03:56:15;22.60;93.20
16955;DHT22;8594;52.052;8.354;2022-07-19T03:58:46;22.60;92.80
16955;DHT22;8594;52.052;8.354;2022-07-19T04:01:13;22.60;92.80
16955;DHT22;8594;52.052;8.354;2022-07-19T04:03:41;22.60;92.30
16955;DHT22;8594;52.052;8.354;2022-07-19T04:06:10;22.70;92.20
16955;DHT22;8594;52.052;8.354;2022-07-19T04:08:37;22.80;92.60
16955;DHT22;8594;52.052;8.354;2022-07-19T04:11:05;23.00;92.70
16955;DHT22;8594;52.052;8.354;2022-07-19T04:13:34;23.20;92.40
16955;DHT22;8594;52.052;8.354;2022-07-19T04:16:02;23.50;92.30
16955;DHT22;8594;52.052;8.354;2022-07-19T04:18:30;23.70;92.00
16955;DHT22;8594;52.052;8.354;2022-07-19T04:20:57;23.70;92.20
16955;DHT22;8594;52.052;8.354;2022-07-19T04:23:27;24.00;91.40
16955;DHT22;8594;52.052;8.354;2022-07-19T04:25:54;24.00;91.10
16955;DHT22;8594;52.052;8.354;2022-07-19T04:28:20;24.20;91.20
16955;DHT22;8594;52.052;8.354;2022-07-19T04:30:49;24.50;91.60
16955;DHT22;8594;52.052;8.354;2022-07-19T04:33:17;24.50;91.40
16955;DHT22;8594;52.052;8.354;2022-07-19T04:35:45;24.90;91.10
16955;DHT22;8594;52.052;8.354;2022-07-19T04:38:12;25.30;90.80
16955;DHT22;8594;52.052;8.354;2022-07-19T04:40:38;25.60;90.60
16955;DHT22;8594;52.052;8.354;2022-07-19T04:43:05;26.00;90.10
16955;DHT22;8594;52.052;8.354;2022-07-19T04:45:33;26.30;89.20
16955;DHT22;8594;52.052;8.354;2022-07-19T04:48:01;26.40;88.20
16955;DHT22;8594;52.052;8.354;2022-07-19T04:50:28;26.30;88.40
16955;DHT22;8594;52.052;8.354;2022-07-19T04:52:54;26.20;89.00
16955;DHT22;8594;52.052;8.354;2022-07-19T04:55:21;26.50;89.00
16955;DHT22;8594;52.052;8.354;2022-07-19T04:57:48;26.60;88.20
16955;DHT22;8594;52.052;8.354;2022-07-19T05:00:15;26.70;88.70
16955;DHT22;8594;52.052;8.354;2022-07-19T05:02:42;26.80;87.00
16955;DHT22;8594;52.052;8.354;2022-07-19T05:05:11;27.40;87.40
16955;DHT22;8594;52.052;8.354;2022-07-19T05:07:39;27.70;87.60
16955;DHT22;8594;52.052;8.354;2022-07-19T05:10:07;28.20;85.50
16955;DHT22;8594;52.052;8.354;2022-07-19T05:12:35;28.40;86.00
16955;DHT22;8594;52.052;8.354;2022-07-19T05:15:01;28.70;84.60
16955;DHT22;8594;52.052;8.354;2022-07-19T05:17:29;28.70;85.60
16955;DHT22;8594;52.052;8.354;2022-07-19T05:19:55;29.10;84.80
16955;DHT22;8594;52.052;8.354;2022-07-19T05:22:24;29.60;83.70
16955;DHT22;8594;52.052;8.354;2022-07-19T05:24:51;29.90;82.60
16955;DHT22;8594;52.052;8.354;2022-07-19T05:27:21;30.40;81.60
16955;DHT22;8594;52.052;8.354;2022-07-19T05:29:49;30.70;80.50
16955;DHT22;8594;52.052;8.354;2022-07-19T05:32:16;30.80;82.10
16955;DHT22;8594;52.052;8.354;2022-07-19T05:34:43;30.90;80.10
16955;DHT22;8594;52.052;8.354;2022-07-19T05:37:10;30.80;81.50
16955;DHT22;8594;52.052;8.354;2022-07-19T05:39:38;30.80;81.30
16955;DHT22;8594;52.052;8.354;2022-07-19T05:42:05;31.00;81.50
16955;DHT22;8594;52.052;8.354;2022-07-19T05:44:32;31.20;80.00
16955;DHT22;8594;52.052;8.354;2022-07-19T05:46:59;31.60;80.40
16955;DHT22;8594;52.052;8.354;2022-07-19T05:49:26;32.00;79.30
16955;DHT22;8594;52.052;8.354;2022-07-19T05:51:53;32.40;76.30
16955;DHT22;8594;52.052;8.354;2022-07-19T05:54:19;32.40;77.00
16955;DHT22;8594;52.052;8.354;2022-07-19T05:56:48;33.00;77.00
16955;DHT22;8594;52.052;8.354;2022-07-19T05:59:14;33.50;75.40
16955;DHT22;8594;52.052;8.354;2022-07-19T06:01:41;33.60;74.40
16955;DHT22;8594;52.052;8.354;2022-07-19T06:04:08;34.10;74.60
16955;DHT22;8594;52.052;8.354;2022-07-19T06:06:35;33.90;74.70
16955;DHT22;8594;52.052;8.354;2022-07-19T06:09:03;34.30;74.30
16955;DHT22;8594;52.052;8.354;2022-07-19T06:11:33;34.50;73.80
16955;DHT22;8594;52.052;8.354;2022-07-19T06:14:02;34.20;74.10
16955;DHT22;8594;52.052;8.354;2022-07-19T06:16:30;34.60;74.40
16955;DHT22;8594;52.052;8.354;2022-07-19T06:18:57;34.50;74.90
16955;DHT22;8594;52.052;8.354;2022-07-19T06:21:24;34.50;74.40
16955;DHT22;8594;52.052;8.354;2022-07-19T06:23:50;34.30;74.10
16955;DHT22;8594;52.052;8.354;2022-07-19T06:26:18;35.00;73.90
16955;DHT22;8594;52.052;8.354;2022-07-19T06:28:44;35.80;72.10
16955;DHT22;8594;52.052;8.354;2022-07-19T06:31:14;35.90;73.40
16955;DHT22;8594;52.052;8.354;2022-07-19T06:33:44;36.00;74.20
16955;DHT22;8594;52.052;8.354;2022-07-19T06:36:12;36.10;74.00
16955;DHT22;8594;52.052;8.354;2022-07-19T06:38:39;36.30;72.80
16955;DHT22;8594;52.052;8.354;2022-07-19T06:41:06;36.60;73.90
16955;DHT22;8594;52.052;8.354;2022-07-19T06:43:33;36.50;74.90
16955;DHT22;8594;52.052;8.354;2022-07-19T06:46:01;36.50;72.50
16955;DHT22;8594;52.052;8.354;2022-07-19T06:48:29;36.70;71.80
16955;DHT22;8594;52.052;8.354;2022-07-19T06:50:56;36.80;72.30
16955;DHT22;8594;52.052;8.354;2022-07-19T06:53:22;37.10;71.30
16955;DHT22;8594;52.052;8.354;2022-07-19T06:55:50;37.30;70.70
16955;DHT22;8594;52.052;8.354;2022-07-19T06:58:16;37.60;70.90
16955;DHT22;8594;52.052;8.354;2022-07-19T07:00:44;37.70;71.10
16955;DHT22;8594;52.052;8.354;2022-07-19T07:03:10;38.00;68.60
16955;DHT22;8594;52.052;8.354;2022-07-19T07:05:39;37.60;71.60
16955;DHT22;8594;52.052;8.354;2022-07-19T07:08:05;37.70;67.60
16955;DHT22;8594;52.052;8.354;2022-07-19T07:10:32;37.90;67.20
16955;DHT22;8594;52.052;8.354;2022-07-19T07:12:59;38.60;65.40
16955;DHT22;8594;52.052;8.354;2022-07-19T07:15:26;38.10;66.90
16955;DHT22;8594;52.052;8.354;2022-07-19T07:17:53;38.20;68.20
16955;DHT22;8594;52.052;8.354;2022-07-19T07:20:19;38.60;68.80
16955;DHT22;8594;52.052;8.354;2022-07-19T07:22:48;38.90;68.50
16955;DHT22;8594;52.052;8.354;2022-07-19T07:25:15;39.00;68.40
16955;DHT22;8594;52.052;8.354;2022-07-19T07:27:43;38.70;67.80
16955;DHT22;8594;52.052;8.354;2022-07-19T07:30:10;38.70;64.50
16955;DHT22;8594;52.052;8.354;2022-07-19T07:32:37;38.90;63.90
16955;DHT22;8594;52.052;8.354;2022-07-19T07:35:05;39.10;62.20
16955;DHT22;8594;52.052;8.354;2022-07-19T07:37:32;39.20;62.80
16955;DHT22;8594;52.052;8.354;2022-07-19T07:40:01;38.90;61.60
16955;DHT22;8594;52.052;8.354;2022-07-19T07:42:30;39.10;62.80
16955;DHT22;8594;52.052;8.354;2022-07-19T07:44:58;39.20;62.40
16955;DHT22;8594;52.052;8.354;2022-07-19T07:47:25;39.10;62.60
16955;DHT22;8594;52.052;8.354;2022-07-19T07:49:52;38.90;60.60
16955;DHT22;8594;52.052;8.354;2022-07-19T07:52:19;39.00;59.80
16955;DHT22;8594;52.052;8.354;2022-07-19T07:54:46;39.30;59.30
16955;DHT22;8594;52.052;8.354;2022-07-19T07:57:15;39.40;59.10
16955;DHT22;8594;52.052;8.354;2022-07-19T07:59:42;39.20;60.10
16955;DHT22;8594;52.052;8.354;2022-07-19T08:02:09;39.80;58.80
16955;DHT22;8594;52.052;8.354;2022-07-19T08:04:36;39.60;58.40
16955;DHT22;8594;52.052;8.354;2022-07-19T08:07:03;39.80;57.00
16955;DHT22;8594;52.052;8.354;2022-07-19T08:09:29;39.90;58.40
16955;DHT22;8594;52.052;8.354;2022-07-19T08:11:56;39.60;58.30
16955;DHT22;8594;52.052;8.354;2022-07-19T08:14:24;39.20;58.70
16955;DHT22;8594;52.052;8.354;2022-07-19T08:16:53;39.20;59.00
16955;DHT22;8594;52.052;8.354;2022-07-19T08:19:19;39.60;58.90
16955;DHT22;8594;52.052;8.354;2022-07-19T08:21:46;39.30;58.70
16955;DHT22;8594;52.052;8.354;2022-07-19T08:24:13;39.40;58.70
16955;DHT22;8594;52.052;8.354;2022-07-19T08:26:40;39.50;58.10
16955;DHT22;8594;52.052;8.354;2022-07-19T08:29:07;39.30;58.60
16955;DHT22;8594;52.052;8.354;2022-07-19T08:31:35;39.10;57.30
16955;DHT22;8594;52.052;8.354;2022-07-19T08:34:02;38.90;58.60
16955;DHT22;8594;52.052;8.354;2022-07-19T08:36:29;39.30;59.40
16955;DHT22;8594;52.052;8.354;2022-07-19T08:38:56;39.20;60.50
16955;DHT22;8594;52.052;8.354;2022-07-19T08:41:22;39.70;58.90
16955;DHT22;8594;52.052;8.354;2022-07-19T08:43:49;39.40;58.30
16955;DHT22;8594;52.052;8.354;2022-07-19T08:46:19;39.40;58.50
16955;DHT22;8594;52.052;8.354;2022-07-19T08:48:49;39.60;59.60
16955;DHT22;8594;52.052;8.354;2022-07-19T08:51:18;39.60;59.30
16955;DHT22;8594;52.052;8.354;2022-07-19T08:53:46;39.20;59.30
16955;DHT22;8594;52.052;8.354;2022-07-19T08:56:14;39.00;59.10
16955;DHT22;8594;52.052;8.354;2022-07-19T08:58:59;38.70;59.70
16955;DHT22;8594;52.052;8.354;2022-07-19T09:01:26;38.40;59.50
16955;DHT22;8594;52.052;8.354;2022-07-19T09:04:05;38.20;60.00
16955;DHT22;8594;52.052;8.354;2022-07-19T09:06:38;38.40;59.40
16955;DHT22;8594;52.052;8.354;2022-07-19T09:09:06;38.30;58.20
16955;DHT22;8594;52.052;8.354;2022-07-19T09:11:35;38.20;58.90
16955;DHT22;8594;52.052;8.354;2022-07-19T09:14:08;37.90;59.00
16955;DHT22;8594;52.052;8.354;2022-07-19T09:17:03;37.80;57.80
16955;DHT22;8594;52.052;8.354;2022-07-19T09:19:34;38.00;58.50
16955;DHT22;8594;52.052;8.354;2022-07-19T09:22:04;37.80;58.90
16955;DHT22;8594;52.052;8.354;2022-07-19T09:24:36;37.60;60.50
16955;DHT22;8594;52.052;8.354;2022-07-19T09:27:07;37.20;60.20
16955;DHT22;8594;52.052;8.354;2022-07-19T09:29:36;37.20;59.70
16955;DHT22;8594;52.052;8.354;2022-07-19T09:32:10;37.40;59.60
16955;DHT22;8594;52.052;8.354;2022-07-19T09:34:42;37.50;59.60
16955;DHT22;8594;52.052;8.354;2022-07-19T09:37:15;37.30;58.70
16955;DHT22;8594;52.052;8.354;2022-07-19T09:39:45;37.10;59.50
16955;DHT22;8594;52.052;8.354;2022-07-19T09:42:15;37.40;58.70
16955;DHT22;8594;52.052;8.354;2022-07-19T09:44:44;37.40;57.40
16955;DHT22;8594;52.052;8.354;2022-07-19T09:47:13;37.70;59.10
16955;DHT22;8594;52.052;8.354;2022-07-19T09:49:42;37.50;59.90
16955;DHT22;8594;52.052;8.354;2022-07-19T09:52:09;37.50;58.60
16955;DHT22;8594;52.052;8.354;2022-07-19T09:54:38;37.80;57.80
16955;DHT22;8594;52.052;8.354;2022-07-19T09:57:08;37.70;57.20
16955;DHT22;8594;52.052;8.354;2022-07-19T09:59:37;37.50;58.20
16955;DHT22;8594;52.052;8.354;2022-07-19T10:02:13;37.50;57.40
16955;DHT22;8594;52.052;8.354;2022-07-19T10:04:46;37.80;57.60
16955;DHT22;8594;52.052;8.354;2022-07-19T10:07:16;37.80;57.10
16955;DHT22;8594;52.052;8.354;2022-07-19T10:09:44;37.90;57.00
16955;DHT22;8594;52.052;8.354;2022-07-19T10:12:11;38.00;57.60
16955;DHT22;8594;52.052;8.354;2022-07-19T10:14:38;37.50;59.20
16955;DHT22;8594;52.052;8.354;2022-07-19T10:17:14;37.70;57.30
16955;DHT22;8594;52.052;8.354;2022-07-19T10:19:48;37.80;57.30
16955;DHT22;8594;52.052;8.354;2022-07-19T10:22:17;38.10;57.10
16955;DHT22;8594;52.052;8.354;2022-07-19T10:24:49;38.10;56.80
16955;DHT22;8594;52.052;8.354;2022-07-19T10:27:34;38.00;57.70
16955;DHT22;8594;52.052;8.354;2022-07-19T10:30:23;37.80;58.80
16955;DHT22;8594;52.052;8.354;2022-07-19T10:32:54;37.80;57.50
16955;DHT22;8594;52.052;8.354;2022-07-19T10:35:28;37.80;58.80
16955;DHT22;8594;52.052;8.354;2022-07-19T10:38:08;38.10;57.70
16955;DHT22;8594;52.052;8.354;2022-07-19T10:40:39;38.00;57.50
16955;DHT22;8594;52.052;8.354;2022-07-19T10:43:11;37.90;58.60
16955;DHT22;8594;52.052;8.354;2022-07-19T10:45:40;37.90;57.80
16955;DHT22;8594;52.052;8.354;2022-07-19T10:48:10;37.90;57.00
16955;DHT22;8594;52.052;8.354;2022-07-19T10:50:56;37.90;56.90
16955;DHT22;8594;52.052;8.354;2022-07-19T10:53:55;38.20;56.30
16955;DHT22;8594;52.052;8.354;2022-07-19T10:56:36;38.40;57.00
16955;DHT22;8594;52.052;8.354;2022-07-19T10:59:06;38.40;57.10
16955;DHT22;8594;52.052;8.354;2022-07-19T11:01:35;38.50;56.80
16955;DHT22;8594;52.052;8.354;2022-07-19T11:04:24;38.40;57.20
16955;DHT22;8594;52.052;8.354;2022-07-19T11:09:55;38.00;55.90
16955;DHT22;8594;52.052;8.354;2022-07-19T11:12:29;38.20;56.10
16955;DHT22;8594;52.052;8.354;2022-07-19T11:15:07;38.10;54.60
16955;DHT22;8594;52.052;8.354;2022-07-19T11:17:35;38.40;54.70
16955;DHT22;8594;52.052;8.354;2022-07-19T11:20:10;38.40;54.80
16955;DHT22;8594;52.052;8.354;2022-07-19T11:22:45;38.40;55.40
16955;DHT22;8594;52.052;8.354;2022-07-19T11:25:16;38.60;54.00
16955;DHT22;8594;52.052;8.354;2022-07-19T11:27:50;38.60;53.70
16955;DHT22;8594;52.052;8.354;2022-07-19T11:30:20;38.60;54.70
16955;DHT22;8594;52.052;8.354;2022-07-19T11:32:55;38.70;54.40
16955;DHT22;8594;52.052;8.354;2022-07-19T11:35:23;38.60;53.10
16955;DHT22;8594;52.052;8.354;2022-07-19T11:37:52;38.80;54.20
16955;DHT22;8594;52.052;8.354;2022-07-19T11:40:23;38.70;54.00
16955;DHT22;8594;52.052;8.354;2022-07-19T11:42:51;38.90;54.20
16955;DHT22;8594;52.052;8.354;2022-07-19T11:45:20;38.70;54.20
16955;DHT22;8594;52.052;8.354;2022-07-19T11:47:51;38.70;54.10
16955;DHT22;8594;52.052;8.354;2022-07-19T11:50:22;38.60;54.30
16955;DHT22;8594;52.052;8.354;2022-07-19T11:52:51;38.60;55.10
16955;DHT22;8594;52.052;8.354;2022-07-19T11:55:24;38.90;55.10
16955;DHT22;8594;52.052;8.354;2022-07-19T11:57:52;39.10;53.80
16955;DHT22;8594;52.052;8.354;2022-07-19T12:00:20;38.80;52.40
16955;DHT22;8594;52.052;8.354;2022-07-19T12:02:56;38.70;53.30
16955;DHT22;8594;52.052;8.354;2022-07-19T12:05:24;38.80;53.50
16955;DHT22;8594;52.052;8.354;2022-07-19T12:07:54;38.60;52.50
16955;DHT22;8594;52.052;8.354;2022-07-19T12:10:42;38.80;50.90
16955;DHT22;8594;52.052;8.354;2022-07-19T12:13:14;38.90;51.40
16955;DHT22;8594;52.052;8.354;2022-07-19T12:15:54;38.60;51.50
16955;DHT22;8594;52.052;8.354;2022-07-19T12:18:23;38.50;51.70
16955;DHT22;8594;52.052;8.354;2022-07-19T12:21:16;38.70;51.70
16955;DHT22;8594;52.052;8.354;2022-07-19T12:24:15;39.10;53.80
16955;DHT22;8594;52.052;8.354;2022-07-19T12:26:54;39.40;51.60
16955;DHT22;8594;52.052;8.354;2022-07-19T12:29:32;39.40;51.30
16955;DHT22;8594;52.052;8.354;2022-07-19T12:32:02;39.10;51.30
16955;DHT22;8594;52.052;8.354;2022-07-19T12:34:43;39.30;51.60
16955;DHT22;8594;52.052;8.354;2022-07-19T12:37:21;39.20;50.90
16955;DHT22;8594;52.052;8.354;2022-07-19T12:40:00;39.10;51.70
16955;DHT22;8594;52.052;8.354;2022-07-19T12:42:43;39.10;52.30
16955;DHT22;8594;52.052;8.354;2022-07-19T12:45:14;39.00;50.70
16955;DHT22;8594;52.052;8.354;2022-07-19T12:47:43;38.70;50.80
16955;DHT22;8594;52.052;8.354;2022-07-19T12:50:20;38.50;50.90
16955;DHT22;8594;52.052;8.354;2022-07-19T12:52:48;38.70;50.60
16955;DHT22;8594;52.052;8.354;2022-07-19T12:55:16;39.10;50.60
16955;DHT22;8594;52.052;8.354;2022-07-19T12:57:44;39.00;50.30
16955;DHT22;8594;52.052;8.354;2022-07-19T13:00:13;39.10;49.90
16955;DHT22;8594;52.052;8.354;2022-07-19T13:02:40;39.10;49.00
16955;DHT22;8594;52.052;8.354;2022-07-19T13:05:08;39.10;49.40
16955;DHT22;8594;52.052;8.354;2022-07-19T13:07:35;39.10;49.70
16955;DHT22;8594;52.052;8.354;2022-07-19T13:10:02;39.10;49.90
16955;DHT22;8594;52.052;8.354;2022-07-19T13:12:29;39.50;49.80
16955;DHT22;8594;52.052;8.354;2022-07-19T13:14:58;39.50;48.10
16955;DHT22;8594;52.052;8.354;2022-07-19T13:17:25;39.40;47.60
16955;DHT22;8594;52.052;8.354;2022-07-19T13:19:52;39.50;47.80
16955;DHT22;8594;52.052;8.354;2022-07-19T13:22:19;39.40;47.90
16955;DHT22;8594;52.052;8.354;2022-07-19T13:24:46;39.20;48.40
16955;DHT22;8594;52.052;8.354;2022-07-19T13:27:13;39.40;49.10
16955;DHT22;8594;52.052;8.354;2022-07-19T13:29:41;39.30;47.90
16955;DHT22;8594;52.052;8.354;2022-07-19T13:32:09;39.30;48.60
16955;DHT22;8594;52.052;8.354;2022-07-19T13:34:37;39.60;47.90
16955;DHT22;8594;52.052;8.354;2022-07-19T13:37:05;39.70;50.00
16955;DHT22;8594;52.052;8.354;2022-07-19T13:39:32;39.60;50.30
16955;DHT22;8594;52.052;8.354;2022-07-19T13:41:59;39.70;49.10
16955;DHT22;8594;52.052;8.354;2022-07-19T13:44:27;39.50;49.00
16955;DHT22;8594;52.052;8.354;2022-07-19T13:46:54;39.40;47.60
16955;DHT22;8594;52.052;8.354;2022-07-19T13:49:22;39.40;47.50
16955;DHT22;8594;52.052;8.354;2022-07-19T13:51:49;39.40;48.40
16955;DHT22;8594;52.052;8.354;2022-07-19T13:54:16;39.40;48.30
16955;DHT22;8594;52.052;8.354;2022-07-19T13:56:43;39.50;46.30
16955;DHT22;8594;52.052;8.354;2022-07-19T13:59:10;39.60;46.50
16955;DHT22;8594;52.052;8.354;2022-07-19T14:01:37;39.80;47.40
16955;DHT22;8594;52.052;8.354;2022-07-19T14:04:04;39.70;45.20
16955;DHT22;8594;52.052;8.354;2022-07-19T14:06:32;39.60;44.90
16955;DHT22;8594;52.052;8.354;2022-07-19T14:08:59;39.90;45.30
16955;DHT22;8594;52.052;8.354;2022-07-19T14:11:26;39.60;45.90
16955;DHT22;8594;52.052;8.354;2022-07-19T14:13:53;39.70;45.70
16955;DHT22;8594;52.052;8.354;2022-07-19T14:16:20;39.70;45.50
16955;DHT22;8594;52.052;8.354;2022-07-19T14:18:47;39.90;45.50
16955;DHT22;8594;52.052;8.354;2022-07-19T14:21:14;39.60;44.60
16955;DHT22;8594;52.052;8.354;2022-07-19T14:23:42;39.80;44.70
16955;DHT22;8594;52.052;8.354;2022-07-19T14:26:09;39.90;45.50
16955;DHT22;8594;52.052;8.354;2022-07-19T14:28:36;39.80;44.80
16955;DHT22;8594;52.052;8.354;2022-07-19T14:31:02;39.70;44.90
16955;DHT22;8594;52.052;8.354;2022-07-19T14:33:29;40.00;44.20
16955;DHT22;8594;52.052;8.354;2022-07-19T14:35:56;40.10;46.70
16955;DHT22;8594;52.052;8.354;2022-07-19T14:38:23;39.90;43.70
16955;DHT22;8594;52.052;8.354;2022-07-19T14:40:51;40.10;43.60
16955;DHT22;8594;52.052;8.354;2022-07-19T14:43:18;40.00;41.70
16955;DHT22;8594;52.052;8.354;2022-07-19T14:45:45;39.80;43.50
16955;DHT22;8594;52.052;8.354;2022-07-19T14:48:12;39.60;43.20
16955;DHT22;8594;52.052;8.354;2022-07-19T14:50:39;39.60;43.30
16955;DHT22;8594;52.052;8.354;2022-07-19T14:53:06;39.50;44.00
16955;DHT22;8594;52.052;8.354;2022-07-19T14:55:32;39.50;42.70
16955;DHT22;8594;52.052;8.354;2022-07-19T14:58:00;39.50;43.20
16955;DHT22;8594;52.052;8.354;2022-07-19T15:00:27;39.20;43.80
16955;DHT22;8594;52.052;8.354;2022-07-19T15:02:54;39.20;45.70
16955;DHT22;8594;52.052;8.354;2022-07-19T15:05:21;39.40;46.20
16955;DHT22;8594;52.052;8.354;2022-07-19T15:07:48;39.50;45.60
16955;DHT22;8594;52.052;8.354;2022-07-19T15:10:15;39.60;46.70
16955;DHT22;8594;52.052;8.354;2022-07-19T15:12:42;39.60;45.40
16955;DHT22;8594;52.052;8.354;2022-07-19T15:15:10;39.70;45.00
16955;DHT22;8594;52.052;8.354;2022-07-19T15:17:37;39.50;45.50
16955;DHT22;8594;52.052;8.354;2022-07-19T15:20:06;39.20;46.20
16955;DHT22;8594;52.052;8.354;2022-07-19T15:22:33;39.20;44.50
16955;DHT22;8594;52.052;8.354;2022-07-19T15:25:03;39.40;44.20
16955;DHT22;8594;52.052;8.354;2022-07-19T15:27:30;39.50;43.70
16955;DHT22;8594;52.052;8.354;2022-07-19T15:29:57;39.50;45.00
16955;DHT22;8594;52.052;8.354;2022-07-19T15:32:25;39.50;43.80
16955;DHT22;8594;52.052;8.354;2022-07-19T15:34:53;39.50;43.30
16955;DHT22;8594;52.052;8.354;2022-07-19T15:37:20;39.40;44.90
16955;DHT22;8594;52.052;8.354;2022-07-19T15:39:47;39.40;44.20
16955;DHT22;8594;52.052;8.354;2022-07-19T15:42:14;39.20;44.30
16955;DHT22;8594;52.052;8.354;2022-07-19T15:44:41;39.30;43.80
16955;DHT22;8594;52.052;8.354;2022-07-19T15:47:08;39.20;45.00
16955;DHT22;8594;52.052;8.354;2022-07-19T15:49:36;39.00;44.40
16955;DHT22;8594;52.052;8.354;2022-07-19T15:52:03;38.90;44.20
16955;DHT22;8594;52.052;8.354;2022-07-19T15:54:30;38.80;43.90
16955;DHT22;8594;52.052;8.354;2022-07-19T15:56:57;39.10;45.50